createdAt,value
2022-12-15T00:02:10.137Z,53.97
2022-12-15T00:04:55.225Z,42.55
2022-12-15T00:07:40.264Z,50.35
2022-12-15T00:10:25.540Z,45.95
2022-12-15T00:13:10.706Z,47.95
2022-12-15T00:15:55.586Z,49.90
2022-12-15T00:18:40.533Z,47.50
2022-12-15T00:21:25.210Z,52.70
2022-12-15T00:24:10.012Z,42.83
2022-12-15T00:26:54.754Z,47.97
2022-12-15T00:29:39.551Z,45.80
2022-12-15T00:32:24.747Z,51.28
2022-12-15T00:35:09.383Z,47.22
2022-12-15T00:37:54.212Z,52.25
2022-12-15T00:40:20.554Z,48.28
2022-12-15T00:42:49.509Z,48.38
2022-12-15T00:45:16.233Z,49.97
2022-12-15T00:47:42.779Z,53.55
2022-12-15T00:50:27.883Z,55.00
2022-12-15T00:53:13.067Z,52.45
2022-12-15T00:55:57.975Z,52.50
2022-12-15T00:58:43.073Z,53.15
2022-12-15T01:01:28.905Z,67.15
2022-12-15T01:04:14.090Z,55.85
2022-12-15T01:06:58.996Z,55.42
2022-12-15T01:09:44.203Z,52.30
2022-12-15T01:12:29.378Z,62.72
2022-12-15T01:15:14.147Z,50.22
2022-12-15T01:17:59.216Z,54.70
2022-12-15T01:20:25.652Z,53.08
2022-12-15T01:22:54.830Z,55.05
2022-12-15T01:25:24.288Z,54.30
2022-12-15T01:27:51.473Z,52.15
2022-12-15T01:30:21.698Z,53.33
2022-12-15T01:32:48.827Z,59.58
2022-12-15T01:35:15.799Z,59.53
2022-12-15T01:37:42.233Z,56.75
2022-12-15T01:40:34.275Z,65.78
2022-12-15T01:43:00.959Z,52.00
2022-12-15T01:45:27.267Z,50.95
2022-12-15T01:47:57.530Z,50.22
2022-12-15T01:50:26.150Z,54.08
2022-12-15T01:52:54.055Z,45.08
2022-12-15T01:55:25.571Z,45.45
2022-12-15T01:57:56.733Z,47.15
2022-12-15T02:00:23.296Z,41.60
2022-12-15T02:02:50.966Z,44.95
2022-12-15T02:05:18.023Z,44.50
2022-12-15T02:07:44.347Z,46.13
2022-12-15T02:10:11.983Z,44.20
2022-12-15T02:13:01.394Z,44.08
2022-12-15T02:15:38.288Z,45.25
2022-12-15T02:18:49.611Z,44.38
2022-12-15T02:21:24.578Z,47.75
2022-12-15T02:23:54.061Z,45.55
2022-12-15T02:26:58.192Z,46.42
2022-12-15T02:29:35.317Z,42.38
2022-12-15T02:32:28.536Z,46.00
2022-12-15T02:35:04.622Z,45.13
2022-12-15T02:37:36.924Z,51.00
2022-12-15T02:40:05.897Z,47.55
2022-12-15T02:42:35.768Z,46.65
2022-12-15T02:45:07.358Z,49.85
2022-12-15T02:47:38.871Z,53.28
2022-12-15T02:50:23.751Z,46.80
2022-12-15T02:53:23.629Z,45.72
2022-12-15T02:56:11.937Z,51.25
2022-12-15T02:58:56.102Z,46.55
2022-12-15T03:01:26.660Z,45.83
2022-12-15T03:03:55.490Z,46.55
2022-12-15T03:06:24.405Z,43.30
2022-12-15T03:08:50.923Z,43.47
2022-12-15T03:11:17.264Z,53.83
2022-12-15T03:13:43.670Z,43.35
2022-12-15T03:16:10.099Z,47.25
2022-12-15T03:18:36.742Z,47.55
2022-12-15T03:21:03.758Z,51.17
2022-12-15T03:23:30.511Z,46.00
2022-12-15T03:25:57.156Z,47.15
2022-12-15T03:28:23.492Z,44.00
2022-12-15T03:30:50.409Z,49.88
2022-12-15T03:33:17.859Z,49.35
2022-12-15T03:35:44.359Z,45.92
2022-12-15T03:38:10.712Z,50.22
2022-12-15T03:40:37.213Z,48.25
2022-12-15T03:43:03.564Z,44.25
2022-12-15T03:45:30.116Z,45.80
2022-12-15T03:47:57.214Z,45.78
2022-12-15T03:50:26.213Z,55.20
2022-12-15T03:52:57.856Z,47.97
2022-12-15T03:55:24.376Z,54.08
2022-12-15T03:57:51.338Z,51.50
2022-12-15T04:00:19.766Z,56.42
2022-12-15T04:02:46.908Z,48.90
2022-12-15T04:05:19.742Z,50.65
2022-12-15T04:07:46.201Z,52.53
2022-12-15T04:10:13.237Z,57.20
2022-12-15T04:12:43.887Z,49.58
2022-12-15T04:15:11.675Z,44.92
2022-12-15T04:17:38.522Z,51.60
2022-12-15T04:20:10.326Z,53.75
2022-12-15T04:22:41.732Z,54.58
2022-12-15T04:25:32.507Z,55.10
2022-12-15T04:28:18.097Z,47.50
2022-12-15T04:31:14.320Z,50.88
2022-12-15T04:34:03.743Z,43.88
2022-12-15T04:36:49.666Z,48.13
2022-12-15T04:39:34.903Z,47.17
2022-12-15T04:42:20.586Z,51.63
2022-12-15T04:45:07.657Z,49.22
2022-12-15T04:47:52.628Z,55.30
2022-12-15T04:50:37.649Z,47.35
2022-12-15T04:53:34.998Z,45.53
2022-12-15T04:56:21.134Z,47.08
2022-12-15T04:59:06.731Z,50.22
2022-12-15T05:01:53.200Z,48.33
2022-12-15T05:04:38.178Z,51.65
2022-12-15T05:07:23.290Z,53.47
2022-12-15T05:10:14.363Z,52.83
2022-12-15T05:13:02.705Z,56.30
2022-12-15T05:15:48.760Z,56.30
2022-12-15T05:18:33.899Z,59.35
2022-12-15T05:21:18.683Z,58.45
2022-12-15T05:24:03.693Z,58.25
2022-12-15T05:26:52.624Z,56.75
2022-12-15T05:29:38.346Z,59.30
2022-12-15T05:32:04.942Z,57.70
2022-12-15T05:34:34.920Z,51.50
2022-12-15T05:37:03.095Z,49.33
2022-12-15T05:39:29.802Z,52.22
2022-12-15T05:41:56.923Z,48.38
2022-12-15T05:44:24.942Z,51.15
2022-12-15T05:46:51.393Z,44.90
2022-12-15T05:49:19.195Z,48.42
2022-12-15T05:51:47.544Z,65.68
2022-12-15T05:54:16.323Z,68.65
2022-12-15T05:56:43.033Z,59.35
2022-12-15T05:59:09.604Z,48.25
2022-12-15T06:01:36.914Z,49.90
2022-12-15T06:04:04.184Z,50.17
2022-12-15T06:06:30.618Z,47.83
2022-12-15T06:08:57.238Z,54.50
2022-12-15T06:11:23.744Z,49.20
2022-12-15T06:13:50.297Z,55.38
2022-12-15T06:16:21.404Z,46.75
2022-12-15T06:18:51.205Z,56.13
2022-12-15T06:21:19.945Z,53.08
2022-12-15T06:23:46.490Z,44.80
2022-12-15T06:26:20.025Z,45.90
2022-12-15T06:28:47.343Z,47.17
2022-12-15T06:31:14.499Z,55.83
2022-12-15T06:33:41.510Z,49.20
2022-12-15T06:36:10.998Z,46.28
2022-12-15T06:38:37.654Z,54.22
2022-12-15T06:41:05.932Z,47.35
2022-12-15T06:46:02.247Z,39.25
2022-12-15T06:48:28.719Z,36.50
2022-12-15T06:50:56.270Z,51.67
2022-12-15T06:53:24.290Z,41.28
2022-12-15T06:55:51.088Z,44.40
2022-12-15T06:58:18.440Z,49.35
2022-12-15T07:00:46.450Z,44.13
2022-12-15T07:03:16.206Z,47.55
2022-12-15T07:05:44.244Z,49.40
2022-12-15T07:08:11.992Z,51.90
2022-12-15T07:10:40.297Z,53.67
2022-12-15T07:15:36.901Z,42.88
2022-12-15T07:20:31.921Z,48.97
2022-12-15T07:22:58.352Z,43.80
2022-12-15T07:25:24.755Z,54.45
2022-12-15T07:27:51.100Z,51.33
2022-12-15T07:30:17.837Z,52.53
2022-12-15T07:32:50.249Z,54.97
2022-12-15T07:35:17.858Z,55.13
2022-12-15T07:37:44.420Z,51.70
2022-12-15T07:40:11.153Z,59.05
2022-12-15T07:42:37.595Z,54.67
2022-12-15T07:45:05.362Z,51.03
2022-12-15T07:47:32.223Z,51.45
2022-12-15T07:49:58.716Z,51.70
2022-12-15T07:52:25.207Z,52.47
2022-12-15T07:54:51.746Z,56.83
2022-12-15T07:57:18.940Z,61.65
2022-12-15T07:59:45.392Z,52.72
2022-12-15T08:02:12.934Z,56.33
2022-12-15T08:04:40.453Z,49.25
2022-12-15T08:07:07.566Z,54.97
2022-12-15T08:09:34.142Z,53.45
2022-12-15T08:12:00.674Z,52.88
2022-12-15T08:14:28.836Z,59.22
2022-12-15T08:16:55.529Z,55.28
2022-12-15T08:19:26.735Z,59.20
2022-12-15T08:21:53.107Z,60.08
2022-12-15T08:24:19.766Z,54.00
2022-12-15T08:26:50.414Z,56.53
2022-12-15T08:29:49.372Z,53.72
2022-12-15T08:32:04.956Z,56.65
2022-12-15T08:34:31.504Z,51.95
2022-12-15T08:36:58.088Z,54.80
2022-12-15T08:39:24.510Z,57.80
2022-12-15T08:41:51.036Z,53.70
2022-12-15T08:44:17.850Z,50.35
2022-12-15T08:46:44.786Z,56.22
2022-12-15T08:49:14.191Z,56.97
2022-12-15T08:51:43.145Z,50.67
2022-12-15T08:54:09.487Z,54.13
2022-12-15T08:56:36.327Z,47.03
2022-12-15T08:59:03.242Z,54.22
2022-12-15T09:01:32.644Z,48.55
2022-12-15T09:03:59.736Z,52.25
2022-12-15T09:06:29.056Z,47.80
2022-12-15T09:08:57.045Z,55.28
2022-12-15T09:11:24.689Z,52.58
2022-12-15T09:13:51.469Z,46.00
2022-12-15T09:16:19.157Z,50.42
2022-12-15T09:18:48.353Z,70.45
2022-12-15T09:21:15.197Z,62.92
2022-12-15T09:23:42.774Z,58.53
2022-12-15T09:26:11.929Z,60.67
2022-12-15T09:28:39.195Z,58.60
2022-12-15T09:31:11.225Z,51.88
2022-12-15T09:33:38.695Z,58.88
2022-12-15T09:36:06.509Z,52.17
2022-12-15T09:38:39.208Z,56.83
2022-12-15T09:41:20.212Z,53.05
2022-12-15T09:43:52.340Z,55.53
2022-12-15T09:46:42.973Z,54.95
2022-12-15T09:49:36.652Z,67.28
2022-12-15T09:52:19.277Z,50.85
2022-12-15T09:54:46.650Z,51.97
2022-12-15T09:57:19.113Z,52.83
2022-12-15T10:00:05.307Z,48.40
2022-12-15T10:02:44.151Z,50.45
2022-12-15T10:06:14.845Z,50.33
2022-12-15T10:08:42.804Z,46.95
2022-12-15T10:11:24.133Z,48.50
2022-12-15T10:14:06.508Z,50.67
2022-12-15T10:16:40.812Z,47.50
2022-12-15T10:19:14.078Z,44.35
2022-12-15T10:21:40.839Z,49.97
2022-12-15T10:24:31.431Z,51.25
2022-12-15T10:27:22.481Z,53.55
2022-12-15T10:30:02.192Z,49.70
2022-12-15T10:32:31.606Z,51.38
2022-12-15T10:34:58.216Z,54.33
2022-12-15T10:37:24.740Z,45.63
2022-12-15T10:39:52.120Z,49.97
2022-12-15T10:42:23.610Z,49.10
2022-12-15T10:44:53.122Z,50.00
2022-12-15T10:47:31.420Z,52.58
2022-12-15T10:50:38.822Z,47.13
2022-12-15T10:53:09.560Z,46.13
2022-12-15T10:55:37.612Z,48.88
2022-12-15T10:58:20.687Z,46.65
2022-12-15T11:00:50.985Z,52.00
2022-12-15T11:03:26.725Z,51.30
2022-12-15T11:05:55.789Z,46.72
2022-12-15T11:08:25.533Z,48.75
2022-12-15T11:11:16.178Z,54.05
2022-12-15T11:13:43.811Z,45.72
2022-12-15T11:16:18.533Z,48.38
2022-12-15T11:18:48.834Z,47.38
2022-12-15T11:21:35.015Z,51.15
2022-12-15T11:24:04.795Z,56.13
2022-12-15T11:26:56.796Z,48.78
2022-12-15T11:29:29.960Z,52.60
2022-12-15T11:32:01.438Z,51.75
2022-12-15T11:34:38.490Z,48.03
2022-12-15T11:37:42.907Z,51.53
2022-12-15T11:40:36.569Z,52.70
2022-12-15T11:43:27.797Z,44.30
2022-12-15T11:46:00.767Z,51.90
2022-12-15T11:48:48.954Z,50.90
2022-12-15T11:54:07.976Z,43.45
2022-12-15T11:56:50.439Z,43.83
2022-12-15T11:59:39.034Z,49.05
2022-12-15T12:02:20.009Z,47.28
2022-12-15T12:04:56.008Z,48.85
2022-12-15T12:07:49.639Z,48.25
2022-12-15T12:10:29.905Z,45.95
2022-12-15T12:13:21.405Z,47.97
2022-12-15T12:16:24.256Z,46.08
2022-12-15T12:18:57.489Z,40.42
2022-12-15T12:21:35.890Z,42.17
2022-12-15T12:24:21.328Z,46.83
2022-12-15T12:27:00.695Z,50.60
2022-12-15T12:29:37.872Z,46.95
2022-12-15T12:32:13.053Z,45.03
2022-12-15T12:35:31.405Z,43.58
2022-12-15T12:37:51.151Z,50.15
2022-12-15T12:40:31.364Z,46.97
2022-12-15T12:42:59.205Z,40.85
2022-12-15T12:45:50.208Z,47.42
2022-12-15T12:48:25.287Z,48.40
2022-12-15T12:51:10.089Z,52.72
2022-12-15T12:53:36.809Z,44.85
2022-12-15T12:56:03.759Z,43.75
2022-12-15T12:58:45.263Z,50.63
2022-12-15T13:01:30.999Z,49.72
2022-12-15T13:04:12.040Z,46.35
2022-12-15T13:06:38.368Z,52.35
2022-12-15T13:09:16.985Z,45.63
2022-12-15T13:11:50.969Z,48.28
2022-12-15T13:14:31.332Z,47.97
2022-12-15T13:20:01.222Z,44.90
2022-12-15T13:22:38.753Z,55.72
2022-12-15T13:25:35.686Z,48.08
2022-12-15T13:28:17.652Z,48.38
2022-12-15T13:31:21.758Z,48.90
2022-12-15T13:33:51.247Z,51.63
2022-12-15T13:36:39.172Z,48.42
2022-12-15T13:39:17.616Z,52.42
2022-12-15T13:44:54.796Z,48.28
2022-12-15T13:47:25.736Z,50.53
2022-12-15T13:50:02.111Z,50.85
2022-12-15T13:53:16.510Z,44.70
2022-12-15T13:55:28.087Z,47.30
2022-12-15T13:58:01.599Z,49.72
2022-12-15T14:00:28.122Z,53.15
2022-12-15T14:03:06.844Z,40.35
2022-12-15T14:05:33.850Z,43.00
2022-12-15T14:08:03.001Z,59.35
2022-12-15T14:10:41.705Z,47.95
2022-12-15T14:13:17.465Z,47.67
2022-12-15T14:16:15.682Z,48.92
2022-12-15T14:18:42.971Z,50.67
2022-12-15T14:21:27.043Z,50.35
2022-12-15T14:26:41.401Z,56.75
2022-12-15T14:29:09.800Z,46.38
2022-12-15T14:31:37.382Z,53.05
2022-12-15T14:34:08.961Z,46.17
2022-12-15T14:36:38.197Z,52.20
2022-12-15T14:39:08.487Z,50.53
2022-12-15T14:41:40.516Z,51.95
2022-12-15T14:44:31.505Z,50.47
2022-12-15T14:47:08.444Z,57.70
2022-12-15T14:49:42.563Z,53.83
2022-12-15T14:52:25.782Z,50.03
2022-12-15T14:54:57.304Z,53.25
2022-12-15T14:57:25.910Z,49.92
2022-12-15T14:59:53.577Z,58.13
2022-12-15T15:02:30.365Z,55.15
2022-12-15T15:05:07.284Z,51.65
2022-12-15T15:07:35.274Z,50.30
2022-12-15T15:10:04.774Z,51.40
2022-12-15T15:12:43.641Z,52.55
2022-12-15T15:15:19.018Z,58.75
2022-12-15T15:17:51.001Z,53.85
2022-12-15T15:20:18.836Z,54.95
2022-12-15T15:22:46.941Z,58.40
2022-12-15T15:25:39.883Z,48.20
2022-12-15T15:28:16.062Z,48.58
2022-12-15T15:30:48.550Z,52.95
2022-12-15T15:33:16.470Z,60.28
2022-12-15T15:35:44.465Z,59.53
2022-12-15T15:38:19.947Z,59.65
2022-12-15T15:40:55.051Z,62.28
2022-12-15T15:43:22.395Z,56.33
2022-12-15T15:45:50.727Z,54.72
2022-12-15T15:50:55.853Z,51.30
2022-12-15T15:53:24.834Z,47.75
2022-12-15T15:55:55.115Z,65.78
2022-12-15T15:58:21.694Z,57.65
2022-12-15T16:00:48.017Z,58.85
2022-12-15T16:03:15.009Z,60.42
2022-12-15T16:05:42.591Z,55.08
2022-12-15T16:08:15.848Z,61.83
2022-12-15T16:10:45.900Z,57.65
2022-12-15T16:13:12.627Z,71.32
2022-12-15T16:15:39.045Z,52.25
2022-12-15T16:18:05.514Z,55.05
2022-12-15T16:20:33.541Z,70.38
2022-12-15T16:23:05.379Z,63.00
2022-12-15T16:25:46.638Z,55.63
2022-12-15T16:28:17.829Z,63.38
2022-12-15T16:30:45.097Z,59.58
2022-12-15T16:33:13.099Z,60.65
2022-12-15T16:35:41.883Z,72.10
2022-12-15T16:38:21.242Z,61.67
2022-12-15T16:40:47.687Z,62.20
2022-12-15T16:43:19.854Z,62.72
2022-12-15T16:45:48.956Z,75.60
2022-12-15T16:48:16.232Z,77.90
2022-12-15T16:50:46.859Z,76.60
2022-12-15T16:53:19.135Z,79.22
2022-12-15T16:55:47.966Z,54.78
2022-12-15T16:58:17.030Z,68.13
2022-12-15T17:00:44.682Z,62.13
2022-12-15T17:03:18.837Z,85.78
2022-12-15T17:05:49.454Z,76.45
2022-12-15T17:08:20.473Z,87.30
2022-12-15T17:10:48.224Z,78.10
2022-12-15T17:13:45.660Z,85.43
2022-12-15T17:16:14.469Z,85.28
2022-12-15T17:18:42.736Z,85.72
2022-12-15T17:21:15.852Z,72.93
2022-12-15T17:23:45.526Z,64.60
2022-12-15T17:26:27.676Z,75.95
2022-12-15T17:28:58.608Z,84.13
2022-12-15T17:31:30.260Z,75.97
2022-12-15T17:34:02.510Z,79.25
2022-12-15T17:36:29.333Z,81.90
2022-12-15T17:39:01.160Z,82.53
2022-12-15T17:41:58.124Z,82.68
2022-12-15T17:44:32.931Z,96.50
2022-12-15T17:47:01.797Z,71.80
2022-12-15T17:49:34.712Z,79.40
2022-12-15T17:52:04.835Z,77.97
2022-12-15T17:54:31.292Z,73.28
2022-12-15T17:56:57.657Z,74.18
2022-12-15T17:59:24.014Z,71.72
2022-12-15T18:01:50.436Z,69.78
2022-12-15T18:04:17.916Z,77.40
2022-12-15T18:06:44.798Z,76.93
2022-12-15T18:09:17.275Z,66.95
2022-12-15T18:11:46.541Z,76.60
2022-12-15T18:14:18.513Z,79.15
2022-12-15T18:16:45.582Z,93.57
2022-12-15T18:19:15.645Z,78.55
2022-12-15T18:21:44.218Z,92.03
2022-12-15T18:24:15.523Z,78.22
2022-12-15T18:26:42.685Z,82.97
2022-12-15T18:29:19.931Z,77.07
2022-12-15T18:31:50.651Z,83.50
2022-12-15T18:34:21.093Z,83.82
2022-12-15T18:36:47.537Z,87.88
2022-12-15T18:39:19.815Z,86.00
2022-12-15T18:41:46.895Z,84.10
2022-12-15T18:44:25.211Z,90.80
2022-12-15T18:46:53.058Z,86.57
2022-12-15T18:49:22.388Z,76.22
2022-12-15T18:51:49.207Z,81.00
2022-12-15T18:54:23.908Z,82.38
2022-12-15T18:56:51.738Z,101.22
2022-12-15T18:59:19.030Z,89.10
2022-12-15T19:01:47.623Z,97.25
2022-12-15T19:04:14.805Z,94.13
2022-12-15T19:06:41.663Z,86.18
2022-12-15T19:09:15.632Z,105.35
2022-12-15T19:12:02.168Z,96.15
2022-12-15T19:14:40.761Z,91.75
2022-12-15T19:17:29.140Z,80.53
2022-12-15T19:20:18.415Z,98.97
2022-12-15T19:22:47.039Z,107.28
2022-12-15T19:25:25.551Z,109.43
2022-12-15T19:27:59.299Z,99.80
2022-12-15T19:30:29.238Z,102.63
2022-12-15T19:32:56.465Z,98.43
2022-12-15T19:35:22.982Z,99.90
2022-12-15T19:37:50.024Z,98.63
2022-12-15T19:40:23.996Z,104.82
2022-12-15T19:42:53.064Z,115.50
2022-12-15T19:45:27.242Z,111.63
2022-12-15T19:47:54.398Z,113.50
2022-12-15T19:50:24.169Z,112.35
2022-12-15T19:52:54.741Z,104.60
2022-12-15T19:55:25.915Z,115.47
2022-12-15T19:57:52.505Z,121.88
2022-12-15T20:00:22.225Z,121.32
2022-12-15T20:02:51.217Z,128.43
2022-12-15T20:05:19.005Z,127.80
2022-12-15T20:07:46.389Z,107.43
2022-12-15T20:10:31.225Z,142.67
2022-12-15T20:12:58.785Z,165.68
2022-12-15T20:15:28.559Z,162.27
2022-12-15T20:17:56.544Z,151.27
2022-12-15T20:20:24.648Z,188.65
2022-12-15T20:22:54.608Z,210.73
2022-12-15T20:25:26.753Z,187.45
2022-12-15T20:27:53.280Z,177.25
2022-12-15T20:30:26.765Z,173.82
2022-12-15T20:32:53.252Z,165.45
2022-12-15T20:35:21.733Z,176.82
2022-12-15T20:37:48.773Z,178.68
2022-12-15T20:40:18.502Z,178.27
2022-12-15T20:42:44.931Z,169.10
2022-12-15T20:45:19.377Z,173.55
2022-12-15T20:47:47.712Z,165.93
2022-12-15T20:53:25.314Z,145.73
2022-12-15T20:55:53.650Z,151.93
2022-12-15T21:00:48.633Z,151.75
2022-12-15T21:03:31.929Z,154.43
2022-12-15T21:06:00.345Z,148.48
2022-12-15T21:08:29.675Z,152.48
2022-12-15T21:11:01.847Z,143.85
2022-12-15T21:13:31.886Z,163.13
2022-12-15T21:15:58.646Z,144.23
2022-12-15T21:21:21.385Z,145.73
2022-12-15T21:23:48.558Z,135.10
2022-12-15T21:26:19.380Z,142.32
2022-12-15T21:28:47.868Z,150.35
2022-12-15T21:31:15.922Z,145.55
2022-12-15T21:33:42.838Z,152.68
2022-12-15T21:36:18.010Z,156.52
2022-12-15T21:38:47.719Z,159.30
2022-12-15T21:41:20.853Z,150.05
2022-12-15T21:43:47.758Z,150.75
2022-12-15T21:46:27.897Z,158.20
2022-12-15T21:49:14.113Z,149.07
2022-12-15T21:51:46.915Z,144.07
2022-12-15T21:54:27.362Z,162.30
2022-12-15T21:56:56.943Z,162.05
2022-12-15T21:59:26.900Z,155.68
2022-12-15T22:01:55.107Z,145.70
2022-12-15T22:06:53.616Z,171.02
2022-12-15T22:09:21.294Z,147.43
2022-12-15T22:11:50.987Z,165.65
2022-12-15T22:14:33.222Z,172.13
2022-12-15T22:17:01.589Z,160.80
2022-12-15T22:21:55.694Z,151.73
2022-12-15T22:24:22.292Z,149.07
2022-12-15T22:26:50.939Z,143.25
2022-12-15T22:29:20.543Z,151.73
2022-12-15T22:31:53.332Z,136.43
2022-12-15T22:34:24.262Z,145.43
2022-12-15T22:36:51.931Z,140.80
2022-12-15T22:39:19.001Z,131.05
2022-12-15T22:41:48.221Z,131.88
2022-12-15T22:44:27.056Z,123.75
2022-12-15T22:46:56.121Z,116.72
2022-12-15T22:49:28.531Z,116.70
2022-12-15T22:51:55.154Z,113.43
2022-12-15T22:54:24.642Z,111.45
2022-12-15T22:56:55.660Z,110.07
2022-12-15T23:00:03.133Z,108.63
2022-12-15T23:02:35.235Z,110.05
2022-12-15T23:05:02.003Z,92.97
2022-12-15T23:07:28.648Z,102.90
2022-12-15T23:10:14.963Z,103.10
2022-12-15T23:12:41.428Z,92.65
2022-12-15T23:15:27.058Z,95.63
2022-12-15T23:17:53.560Z,92.90
2022-12-15T23:20:21.425Z,86.57
2022-12-15T23:22:47.776Z,91.93
2022-12-15T23:25:14.189Z,91.45
2022-12-15T23:27:40.614Z,92.57
2022-12-15T23:30:08.278Z,93.57
2022-12-15T23:32:34.600Z,103.43
2022-12-15T23:35:00.967Z,99.85
2022-12-15T23:37:27.379Z,100.97
2022-12-15T23:39:53.729Z,106.13
2022-12-15T23:42:20.200Z,97.45
2022-12-15T23:44:48.076Z,111.50
2022-12-15T23:47:14.875Z,98.40
2022-12-15T23:49:41.283Z,101.45
2022-12-15T23:52:08.421Z,95.35
2022-12-15T23:54:34.794Z,86.60
2022-12-15T23:57:02.038Z,90.60
2022-12-15T23:59:28.413Z,98.75
